Time;durP1;ratioP1;P1;durP2;ratioP2;P2;SDS_P1;SDS_P2;PMS_P1;PMS_P2;Temp;Humidity;BMP_temperature;BMP_pressure;BME280_temperature;BME280_humidity;BME280_pressure;Samples;Min_cycle;Max_cycle;Signal;HPM_P1;HPM_P2
2024/01/22 00:00:47;;;;;;;49.33;12.70;;;24.80;33.60;;;;;;5069001;28;20261;-88
2024/01/22 00:03:13;;;;;;;39.13;11.23;;;24.80;33.60;;;;;;5069294;28;20690;-82
2024/01/22 00:05:42;;;;;;;37.23;11.77;;;24.80;33.70;;;;;;5070300;28;20314;-87
2024/01/22 00:08:10;;;;;;;49.43;12.73;;;24.80;33.80;;;;;;5072908;28;20315;-81
2024/01/22 00:10:38;;;;;;;54.40;12.17;;;24.80;33.80;;;;;;5070008;28;20648;-81
2024/01/22 00:13:05;;;;;;;42.13;11.90;;;24.80;33.80;;;;;;5068914;28;20290;-83
2024/01/22 00:15:35;;;;;;;83.17;13.27;;;24.80;33.80;;;;;;5083930;28;20285;-82
2024/01/22 00:18:02;;;;;;;42.90;11.47;;;24.70;33.80;;;;;;5089108;28;20286;-82
2024/01/22 00:20:29;;;;;;;51.43;12.83;;;24.70;33.80;;;;;;5089015;28;20230;-83
2024/01/22 00:22:57;;;;;;;35.13;12.47;;;24.80;33.80;;;;;;5087505;28;20297;-82
2024/01/22 00:25:24;;;;;;;49.93;12.73;;;24.80;34.00;;;;;;5075448;28;20223;-85
2024/01/22 00:27:51;;;;;;;40.53;11.33;;;24.80;34.00;;;;;;5085733;28;20271;-84
2024/01/22 00:30:18;;;;;;;41.37;11.87;;;24.70;34.00;;;;;;5089010;28;20299;-84
2024/01/22 00:32:45;;;;;;;44.87;12.50;;;24.80;34.00;;;;;;5088131;28;20234;-82
2024/01/22 00:35:12;;;;;;;42.63;11.53;;;24.70;34.00;;;;;;5089231;28;20281;-82
2024/01/22 00:37:43;;;;;;;85.00;14.57;;;24.70;34.00;;;;;;5070030;28;20234;-81
2024/01/22 00:40:12;;;;;;;51.73;12.73;;;24.70;34.00;;;;;;5068132;28;20322;-82
2024/01/22 00:42:39;;;;;;;63.47;13.20;;;24.70;34.00;;;;;;5072533;28;20206;-82
2024/01/22 00:45:07;;;;;;;52.30;13.10;;;24.70;34.00;;;;;;5068752;28;20294;-84
2024/01/22 00:47:34;;;;;;;46.57;13.23;;;24.70;34.00;;;;;;5081921;28;20279;-94
2024/01/22 00:50:01;;;;;;;40.77;10.93;;;24.70;34.00;;;;;;5089270;28;20259;-91
2024/01/22 00:52:28;;;;;;;42.37;10.53;;;24.70;34.00;;;;;;5069613;28;20243;-89
2024/01/22 00:54:55;;;;;;;46.43;14.80;;;24.70;34.10;;;;;;5083820;28;20258;-89
2024/01/22 00:57:24;;;;;;;37.33;11.27;;;24.70;34.10;;;;;;5089553;28;20279;-93
2024/01/22 00:59:51;;;;;;;44.13;13.07;;;24.70;34.20;;;;;;5088622;28;20233;-86
2024/01/22 01:02:18;;;;;;;51.80;11.93;;;24.70;34.20;;;;;;5088971;28;20331;-92
2024/01/22 01:04:44;;;;;;;51.67;11.93;;;24.70;34.30;;;;;;5079409;28;20302;-88
2024/01/22 01:07:12;;;;;;;41.50;12.13;;;24.70;34.30;;;;;;5068395;28;20287;-92
2024/01/22 01:09:39;;;;;;;51.63;12.90;;;24.70;34.30;;;;;;5085594;28;20207;-84
2024/01/22 01:12:06;;;;;;;49.77;11.57;;;24.70;34.30;;;;;;5088460;28;20197;-89
2024/01/22 01:14:35;;;;;;;33.13;10.60;;;24.70;34.30;;;;;;5088609;28;20274;-91
2024/01/22 01:17:02;;;;;;;38.33;10.50;;;24.70;34.30;;;;;;5075864;28;20291;-93
2024/01/22 01:19:29;;;;;;;48.70;12.53;;;24.70;34.40;;;;;;5067952;28;20239;-85
2024/01/22 01:21:56;;;;;;;41.10;12.80;;;24.70;34.40;;;;;;5067962;28;20778;-92
2024/01/22 01:24:23;;;;;;;37.10;12.17;;;24.70;34.40;;;;;;5067513;28;20703;-93
2024/01/22 01:26:50;;;;;;;44.73;11.77;;;24.70;34.50;;;;;;5067718;28;20302;-89
2024/01/22 01:29:16;;;;;;;39.07;11.47;;;24.70;34.50;;;;;;5081390;28;20936;-91
2024/01/22 01:31:45;;;;;;;46.53;12.43;;;24.70;34.60;;;;;;5087991;28;20301;-92
2024/01/22 01:34:12;;;;;;;42.47;11.47;;;24.70;34.60;;;;;;5088402;28;20217;-90
2024/01/22 01:36:39;;;;;;;100.87;14.77;;;24.70;34.60;;;;;;5086604;28;20294;-91
2024/01/22 01:39:06;;;;;;;71.60;13.33;;;24.70;34.70;;;;;;5086864;28;20202;-90
2024/01/22 01:41:34;;;;;;;36.97;11.60;;;24.70;34.80;;;;;;5088068;28;20341;-84
2024/01/22 01:44:01;;;;;;;47.17;11.80;;;24.70;34.80;;;;;;5087411;28;20655;-83
2024/01/22 01:46:27;;;;;;;47.90;11.90;;;24.70;34.80;;;;;;5087472;28;20194;-87
2024/01/22 01:48:56;;;;;;;58.47;11.83;;;24.70;34.80;;;;;;5086124;28;20277;-88
2024/01/22 01:51:24;;;;;;;43.33;11.03;;;24.70;34.90;;;;;;5068133;28;20213;-90
2024/01/22 01:53:52;;;;;;;33.03;11.53;;;24.70;35.00;;;;;;5068224;28;20532;-86
2024/01/22 01:56:20;;;;;;;50.70;14.20;;;24.60;34.90;;;;;;5066994;28;20678;-83
2024/01/22 01:58:48;;;;;;;43.07;13.03;;;24.70;35.20;;;;;;5067781;28;20252;-84
2024/01/22 02:01:17;;;;;;;77.43;31.90;;;24.70;35.20;;;;;;5079868;28;20230;-87
2024/01/22 02:03:44;;;;;;;63.83;12.60;;;24.70;35.20;;;;;;5084375;28;20324;-81
2024/01/22 02:06:11;;;;;;;39.53;11.53;;;24.70;35.10;;;;;;5082642;28;20302;-87
2024/01/22 02:08:38;;;;;;;38.70;11.17;;;24.70;35.20;;;;;;5088021;28;20230;-90
2024/01/22 02:11:05;;;;;;;46.63;11.50;;;24.60;35.10;;;;;;5088025;28;20233;-89
2024/01/22 02:13:32;;;;;;;42.70;10.63;;;24.70;35.20;;;;;;5086477;28;20218;-90
2024/01/22 02:15:59;;;;;;;46.10;12.43;;;24.60;35.10;;;;;;5083677;28;20222;-88
2024/01/22 02:18:26;;;;;;;40.97;12.13;;;24.60;35.20;;;;;;5075255;28;20198;-87
2024/01/22 02:20:53;;;;;;;35.40;10.40;;;24.60;35.20;;;;;;5071207;28;20689;-82
2024/01/22 02:23:21;;;;;;;32.47;10.87;;;24.60;35.30;;;;;;5067403;28;20292;-82
2024/01/22 02:25:48;;;;;;;75.60;12.10;;;24.60;35.30;;;;;;5067377;28;20294;-82
2024/01/22 02:28:15;;;;;;;35.33;12.40;;;24.60;35.30;;;;;;5080253;28;20249;-83
2024/01/22 02:30:42;;;;;;;40.87;12.57;;;24.60;35.30;;;;;;5066660;28;20306;-84
2024/01/22 02:33:09;;;;;;;44.47;10.53;;;24.60;35.30;;;;;;5067352;28;20199;-84
2024/01/22 02:35:36;;;;;;;40.87;11.47;;;24.60;35.30;;;;;;5079632;28;20290;-86
2024/01/22 02:38:03;;;;;;;43.10;10.63;;;24.60;35.40;;;;;;5072446;28;20199;-84
2024/01/22 02:40:32;;;;;;;41.20;11.47;;;24.60;35.40;;;;;;5078557;28;20223;-87
2024/01/22 02:42:59;;;;;;;46.30;13.30;;;24.60;35.50;;;;;;5078582;28;20729;-83
2024/01/22 02:45:26;;;;;;;40.27;10.77;;;24.60;35.50;;;;;;5087210;28;20313;-83
2024/01/22 02:47:52;;;;;;;35.63;11.27;;;24.60;35.50;;;;;;5087192;28;20253;-83
2024/01/22 02:50:20;;;;;;;44.77;10.20;;;24.60;35.50;;;;;;5085306;28;20298;-85
2024/01/22 02:52:47;;;;;;;42.63;11.57;;;24.60;35.50;;;;;;5087294;28;20651;-82
2024/01/22 02:55:14;;;;;;;41.90;12.30;;;24.60;35.60;;;;;;5086561;28;20294;-83
2024/01/22 02:57:42;;;;;;;52.77;11.73;;;24.60;35.60;;;;;;5088865;28;20370;-84
2024/01/22 03:00:10;;;;;;;49.77;12.73;;;24.60;35.70;;;;;;5090387;28;20257;-84
2024/01/22 03:02:36;;;;;;;44.53;10.73;;;24.60;35.70;;;;;;5090611;28;20656;-83
2024/01/22 03:05:04;;;;;;;36.80;10.30;;;24.60;35.80;;;;;;5090403;28;20203;-87
2024/01/22 03:07:31;;;;;;;44.23;11.30;;;24.50;35.70;;;;;;5088630;28;20828;-86
2024/01/22 03:09:58;;;;;;;41.63;9.83;;;24.60;35.90;;;;;;5090576;28;20293;-85
2024/01/22 03:12:25;;;;;;;36.97;10.63;;;24.60;35.80;;;;;;5090099;28;20302;-85
2024/01/22 03:14:53;;;;;;;43.03;10.73;;;24.60;35.90;;;;;;5090166;28;20317;-85
2024/01/22 03:17:20;;;;;;;53.23;14.37;;;24.50;35.90;;;;;;5085863;28;20235;-85
2024/01/22 03:19:47;;;;;;;33.50;10.43;;;24.50;35.90;;;;;;5070401;28;20303;-84
2024/01/22 03:22:14;;;;;;;32.70;10.40;;;24.60;36.00;;;;;;5070678;28;20234;-86
2024/01/22 03:24:45;;;;;;;57.10;11.30;;;24.60;36.00;;;;;;5070477;28;20207;-86
2024/01/22 03:27:12;;;;;;;39.27;10.37;;;24.60;36.00;;;;;;5090053;28;20302;-85
2024/01/22 03:29:39;;;;;;;39.83;11.00;;;24.60;36.10;;;;;;5090255;28;20222;-89
2024/01/22 03:32:08;;;;;;;45.03;12.27;;;24.50;36.00;;;;;;5090129;28;20216;-86
2024/01/22 03:34:34;;;;;;;39.37;10.00;;;24.60;36.10;;;;;;5090111;28;20273;-86
2024/01/22 03:37:01;;;;;;;47.77;11.37;;;24.50;36.00;;;;;;5089144;28;20234;-86
2024/01/22 03:39:28;;;;;;;42.30;11.00;;;24.50;36.10;;;;;;5090200;28;20288;-86
2024/01/22 03:41:55;;;;;;;50.23;11.87;;;24.50;36.20;;;;;;5090008;28;20314;-84
2024/01/22 03:44:22;;;;;;;46.00;11.20;;;24.50;36.20;;;;;;5089815;28;20197;-85
2024/01/22 03:46:49;;;;;;;34.33;9.93;;;24.50;36.20;;;;;;5090205;28;20234;-83
2024/01/22 03:49:17;;;;;;;54.03;11.60;;;24.50;36.20;;;;;;5069421;28;20292;-83
2024/01/22 03:51:45;;;;;;;70.23;12.63;;;24.50;36.80;;;;;;5069305;28;20755;-82
2024/01/22 03:54:12;;;;;;;44.77;11.93;;;24.50;36.20;;;;;;5089572;28;20310;-81
2024/01/22 03:56:39;;;;;;;43.20;11.53;;;24.50;36.30;;;;;;5089843;28;20286;-84
2024/01/22 03:59:06;;;;;;;41.10;10.30;;;24.50;36.20;;;;;;5089567;28;20296;-82
2024/01/22 04:01:33;;;;;;;48.83;12.57;;;24.50;36.40;;;;;;5089095;28;20308;-82
2024/01/22 04:04:00;;;;;;;34.33;10.57;;;24.50;36.30;;;;;;5088385;28;20294;-81
2024/01/22 04:06:28;;;;;;;41.50;11.40;;;24.50;36.40;;;;;;5089586;28;20281;-83
2024/01/22 04:08:55;;;;;;;45.10;11.60;;;24.50;36.50;;;;;;5089372;28;20278;-85
2024/01/22 04:11:22;;;;;;;50.13;11.07;;;24.50;36.40;;;;;;5089579;28;20194;-88
2024/01/22 04:13:49;;;;;;;71.43;12.70;;;24.50;36.50;;;;;;5074642;28;20580;-85
2024/01/22 04:16:16;;;;;;;73.77;13.40;;;24.50;36.50;;;;;;5088979;28;20187;-82
2024/01/22 04:18:43;;;;;;;41.47;10.67;;;24.50;36.50;;;;;;5088975;28;20203;-82
2024/01/22 04:21:10;;;;;;;31.87;10.83;;;24.50;36.60;;;;;;5070946;28;20322;-82
2024/01/22 04:23:39;;;;;;;46.87;11.03;;;24.50;36.60;;;;;;5068899;28;20313;-82
2024/01/22 04:26:06;;;;;;;34.20;10.77;;;24.50;36.70;;;;;;5069775;28;20203;-84
2024/01/22 04:28:33;;;;;;;44.27;12.50;;;24.50;36.70;;;;;;5083317;28;20209;-81
2024/01/22 04:31:00;;;;;;;42.33;10.87;;;24.50;36.70;;;;;;5088386;28;20210;-82
2024/01/22 04:33:27;;;;;;;41.70;11.77;;;24.50;36.70;;;;;;5088702;28;20198;-81
2024/01/22 04:35:54;;;;;;;41.83;10.10;;;24.50;36.70;;;;;;5088236;28;20301;-86
2024/01/22 04:38:22;;;;;;;37.80;9.60;;;24.50;36.80;;;;;;5087591;28;20223;-83
2024/01/22 04:40:50;;;;;;;49.03;12.50;;;24.50;36.80;;;;;;5088916;28;20622;-81
2024/01/22 04:43:17;;;;;;;36.13;9.70;;;24.50;36.90;;;;;;5083866;28;20237;-84
2024/01/22 04:45:44;;;;;;;42.03;11.27;;;24.50;36.80;;;;;;5067715;28;20272;-84
2024/01/22 04:48:11;;;;;;;33.87;10.07;;;24.50;36.90;;;;;;5068497;28;20278;-88
2024/01/22 04:50:38;;;;;;;51.67;11.80;;;24.50;36.90;;;;;;5068246;28;20577;-84
2024/01/22 04:53:05;;;;;;;33.13;12.17;;;24.50;36.90;;;;;;5080633;28;20301;-89
2024/01/22 04:55:32;;;;;;;48.77;11.63;;;24.50;36.90;;;;;;5088253;28;20287;-83
2024/01/22 04:58:01;;;;;;;47.27;10.70;;;24.50;36.90;;;;;;5088150;28;20256;-86
2024/01/22 05:00:27;;;;;;;40.10;9.70;;;24.50;37.00;;;;;;5087904;28;20202;-84
2024/01/22 05:02:54;;;;;;;42.07;9.57;;;24.50;37.00;;;;;;5087122;28;20318;-84
2024/01/22 05:05:21;;;;;;;37.90;12.13;;;24.50;37.00;;;;;;5088912;28;20195;-88
2024/01/22 05:07:48;;;;;;;49.90;11.67;;;24.50;37.10;;;;;;5088363;28;20202;-85
2024/01/22 05:10:15;;;;;;;34.17;11.07;;;24.50;37.10;;;;;;5088467;28;20197;-84
2024/01/22 05:12:42;;;;;;;54.07;11.90;;;24.50;37.10;;;;;;5086849;28;20206;-84
2024/01/22 05:15:12;;;;;;;49.77;12.00;;;24.50;37.10;;;;;;5067693;28;20239;-85
2024/01/22 05:17:39;;;;;;;44.23;12.10;;;24.50;37.20;;;;;;5067349;28;20222;-84
2024/01/22 05:20:07;;;;;;;33.80;9.63;;;24.50;37.10;;;;;;5067976;28;20757;-83
2024/01/22 05:22:35;;;;;;;57.00;11.77;;;24.50;37.20;;;;;;5069222;28;20237;-82
2024/01/22 05:25:02;;;;;;;39.43;10.13;;;24.50;37.30;;;;;;5072707;28;20314;-84
2024/01/22 05:27:30;;;;;;;40.43;11.47;;;24.50;37.20;;;;;;5067993;28;20199;-84
2024/01/22 05:29:57;;;;;;;55.07;11.73;;;24.50;37.20;;;;;;5067278;28;20221;-83
2024/01/22 05:32:26;;;;;;;35.63;10.20;;;24.50;37.20;;;;;;5067747;28;20231;-83
2024/01/22 05:34:53;;;;;;;45.50;12.40;;;24.50;37.40;;;;;;5067549;28;20203;-85
2024/01/22 05:37:20;;;;;;;42.33;10.37;;;24.50;37.30;;;;;;5067222;28;20719;-84
2024/01/22 05:39:47;;;;;;;45.40;14.67;;;24.50;37.30;;;;;;5067906;28;20238;-87
2024/01/22 05:42:14;;;;;;;39.37;11.43;;;24.50;37.30;;;;;;5071049;28;20219;-84
2024/01/22 05:44:41;;;;;;;42.87;10.57;;;24.50;37.40;;;;;;5087554;28;20290;-83
2024/01/22 05:47:08;;;;;;;51.57;11.40;;;24.50;37.40;;;;;;5081714;28;20284;-86
2024/01/22 05:49:36;;;;;;;36.30;11.37;;;24.50;37.40;;;;;;5067530;28;20274;-84
2024/01/22 05:52:04;;;;;;;50.13;11.87;;;24.50;37.40;;;;;;5067244;28;20314;-84
2024/01/22 05:54:31;;;;;;;39.00;11.17;;;24.50;37.40;;;;;;5067463;28;20230;-82
2024/01/22 05:56:58;;;;;;;59.07;11.33;;;24.50;37.40;;;;;;5067154;28;20987;-86
2024/01/22 05:59:25;;;;;;;42.67;10.53;;;24.50;37.40;;;;;;5074049;28;20567;-85
2024/01/22 06:01:55;;;;;;;58.20;13.43;;;24.40;37.40;;;;;;5085536;28;20230;-84
2024/01/22 06:04:23;;;;;;;45.83;14.20;;;24.50;37.60;;;;;;5067458;28;20282;-84
2024/01/22 06:06:51;;;;;;;39.03;11.13;;;24.50;37.60;;;;;;5067825;28;20199;-86
2024/01/22 06:09:18;;;;;;;39.33;9.97;;;24.50;37.60;;;;;;5067176;28;20294;-86
2024/01/22 06:11:45;;;;;;;36.33;11.70;;;24.40;37.50;;;;;;5067052;28;20246;-85
2024/01/22 06:14:12;;;;;;;41.53;11.73;;;24.40;37.60;;;;;;5066573;28;20294;-85
2024/01/22 06:16:39;;;;;;;47.30;11.33;;;24.50;37.60;;;;;;5067583;28;20192;-86
2024/01/22 06:19:05;;;;;;;48.40;12.07;;;24.40;37.60;;;;;;5068817;28;20286;-86
2024/01/22 06:21:32;;;;;;;31.97;9.80;;;24.50;37.70;;;;;;5067572;28;20316;-86
2024/01/22 06:24:01;;;;;;;52.33;12.57;;;24.00;37.20;;;;;;5067689;28;20283;-85
2024/01/22 06:26:29;;;;;;;39.03;11.67;;;24.50;37.70;;;;;;5067367;28;20719;-87
2024/01/22 06:28:57;;;;;;;45.00;11.77;;;24.40;37.60;;;;;;5067198;28;20626;-84
2024/01/22 06:31:24;;;;;;;45.53;12.53;;;24.40;37.70;;;;;;5072948;28;20211;-86
2024/01/22 06:33:51;;;;;;;53.57;11.87;;;24.40;37.70;;;;;;5071717;28;20229;-89
2024/01/22 06:36:18;;;;;;;54.63;12.63;;;24.40;37.70;;;;;;5091316;28;20233;-86
2024/01/22 06:38:45;;;;;;;44.43;12.33;;;24.40;37.80;;;;;;5076729;28;20310;-89
2024/01/22 06:41:15;;;;;;;76.50;13.87;;;24.40;37.80;;;;;;5074725;28;20196;-86
2024/01/22 06:43:45;;;;;;;62.10;13.40;;;24.40;37.80;;;;;;5085784;28;20675;-85
2024/01/22 06:46:12;;;;;;;65.33;11.97;;;24.40;37.80;;;;;;5088013;28;20203;-85
2024/01/22 06:48:39;;;;;;;42.20;12.37;;;24.40;38.40;;;;;;5086611;28;20205;-87
2024/01/22 06:51:08;;;;;;;63.13;13.87;;;24.40;37.70;;;;;;5088418;28;20718;-85
2024/01/22 06:53:35;;;;;;;50.33;12.97;;;24.40;37.70;;;;;;5090060;28;20314;-87
2024/01/22 06:56:02;;;;;;;76.73;14.07;;;24.40;37.70;;;;;;5088843;28;20302;-85
2024/01/22 06:58:30;;;;;;;45.40;11.57;;;24.40;37.80;;;;;;5086526;28;20429;-85
2024/01/22 07:00:57;;;;;;;88.13;14.00;;;24.40;37.80;;;;;;5069324;28;20200;-88
2024/01/22 07:03:24;;;;;;;62.90;12.37;;;24.40;37.80;;;;;;5075143;28;20210;-84
2024/01/22 07:05:52;;;;;;;39.30;12.10;;;24.40;37.80;;;;;;5072453;28;20250;-91
2024/01/22 07:08:19;;;;;;;40.00;12.47;;;24.40;37.90;;;;;;5070486;28;20640;-87
2024/01/22 07:10:46;;;;;;;56.97;12.77;;;24.40;38.00;;;;;;5083165;28;20294;-88
2024/01/22 07:13:13;;;;;;;44.17;12.80;;;24.40;37.90;;;;;;5074069;28;20286;-90
2024/01/22 07:15:41;;;;;;;80.63;15.07;;;24.40;38.00;;;;;;5079527;28;20275;-91
2024/01/22 07:18:09;;;;;;;47.83;11.63;;;24.40;38.00;;;;;;5090666;28;20203;-89
2024/01/22 07:20:36;;;;;;;52.77;13.53;;;24.40;38.00;;;;;;5090529;28;20279;-84
2024/01/22 07:23:02;;;;;;;47.43;12.83;;;24.40;38.00;;;;;;5090314;28;20697;-89
2024/01/22 07:25:34;;;;;;;53.83;13.43;;;24.40;38.10;;;;;;5088801;28;20286;-85
2024/01/22 07:28:01;;;;;;;43.23;14.43;;;24.40;38.10;;;;;;5090116;28;20579;-83
2024/01/22 07:30:28;;;;;;;53.17;14.97;;;24.40;38.10;;;;;;5089996;28;20301;-86
2024/01/22 07:32:56;;;;;;;48.93;13.70;;;24.40;38.10;;;;;;5078556;28;20199;-84
2024/01/22 07:35:24;;;;;;;38.83;12.33;;;24.40;38.10;;;;;;5077850;28;20203;-84
2024/01/22 07:37:51;;;;;;;79.60;15.37;;;24.30;38.00;;;;;;5077301;28;20214;-83
2024/01/22 07:40:19;;;;;;;49.43;14.33;;;24.30;38.10;;;;;;5083932;28;20217;-86
2024/01/22 07:42:46;;;;;;;42.40;14.63;;;24.40;38.20;;;;;;5089638;28;20272;-86
2024/01/22 07:45:14;;;;;;;58.27;14.77;;;24.30;38.10;;;;;;5088850;28;20191;-86
2024/01/22 07:47:42;;;;;;;55.73;15.43;;;24.30;38.20;;;;;;5070757;28;20199;-86
2024/01/22 07:50:13;;;;;;;42.60;14.93;;;24.40;38.30;;;;;;5078275;28;20654;-84
2024/01/22 07:52:40;;;;;;;58.10;16.40;;;24.30;38.20;;;;;;5084497;28;20211;-90
2024/01/22 07:55:08;;;;;;;43.27;21.17;;;24.30;38.10;;;;;;5073076;28;20264;-86
2024/01/22 07:57:36;;;;;;;59.83;17.97;;;24.30;38.30;;;;;;5069130;28;20207;-85
2024/01/22 08:00:03;;;;;;;46.50;17.83;;;24.30;38.20;;;;;;5069418;28;20265;-85
2024/01/22 08:02:30;;;;;;;56.30;18.90;;;24.30;38.20;;;;;;5071500;28;20571;-84
2024/01/22 08:04:57;;;;;;;51.73;19.30;;;24.30;38.20;;;;;;5068962;28;20711;-85
2024/01/22 08:07:26;;;;;;;50.77;19.40;;;24.30;38.20;;;;;;5069050;28;20564;-85
2024/01/22 08:09:56;;;;;;;67.47;21.77;;;24.30;38.30;;;;;;5073474;28;20198;-84
2024/01/22 08:12:23;;;;;;;46.97;19.53;;;24.30;38.40;;;;;;5069556;28;20314;-86
2024/01/22 08:14:50;;;;;;;61.77;22.63;;;24.30;38.40;;;;;;5080814;28;20264;-81
2024/01/22 08:17:16;;;;;;;63.93;23.33;;;24.30;38.40;;;;;;5089004;28;20832;-76
2024/01/22 08:19:43;;;;;;;60.33;22.90;;;24.30;38.50;;;;;;5089176;28;20193;-77
2024/01/22 08:22:10;;;;;;;79.30;23.90;;;24.30;38.50;;;;;;5073110;28;20246;-76
2024/01/22 08:24:38;;;;;;;74.80;22.60;;;24.30;38.50;;;;;;5076471;28;20194;-74
2024/01/22 08:27:06;;;;;;;65.50;25.63;;;24.20;38.60;;;;;;5076068;28;20278;-79
2024/01/22 08:29:32;;;;;;;64.07;22.27;;;24.30;38.70;;;;;;5068543;28;20199;-80
2024/01/22 08:31:59;;;;;;;57.63;18.30;;;24.20;38.60;;;;;;5072110;28;20226;-75
2024/01/22 08:34:26;;;;;;;52.97;19.70;;;24.20;38.70;;;;;;5071958;28;20207;-76
2024/01/22 08:36:53;;;;;;;71.33;20.60;;;24.30;38.80;;;;;;5080681;28;20314;-76
2024/01/22 08:39:20;;;;;;;53.07;20.33;;;24.20;38.70;;;;;;5068185;28;20278;-75
2024/01/22 08:41:48;;;;;;;65.97;20.90;;;24.30;38.90;;;;;;5068348;28;20213;-80
2024/01/22 08:44:15;;;;;;;55.30;20.73;;;24.20;38.80;;;;;;5068446;28;20239;-80
2024/01/22 08:46:42;;;;;;;90.60;21.83;;;24.30;39.50;;;;;;5074715;28;20304;-82
2024/01/22 08:49:09;;;;;;;55.73;21.63;;;24.30;38.90;;;;;;5088528;28;20290;-81
2024/01/22 08:51:36;;;;;;;139.47;28.00;;;24.30;39.00;;;;;;5067845;28;20230;-83
2024/01/22 08:54:03;;;;;;;74.13;25.30;;;24.30;39.60;;;;;;5071497;28;20203;-86
2024/01/22 08:56:30;;;;;;;117.20;25.03;;;24.20;38.90;;;;;;5079983;28;20206;-85
2024/01/22 08:58:59;;;;;;;70.40;23.47;;;24.30;38.90;;;;;;5067564;28;20217;-86
2024/01/22 09:01:25;;;;;;;52.47;21.20;;;24.20;38.90;;;;;;5067271;28;20207;-80
2024/01/22 09:03:54;;;;;;;65.50;21.33;;;24.30;39.10;;;;;;5066765;28;20241;-80
2024/01/22 09:06:20;;;;;;;63.03;22.73;;;24.30;39.10;;;;;;5067275;28;20730;-79
2024/01/22 09:08:47;;;;;;;68.00;21.37;;;24.30;39.20;;;;;;5067824;28;20209;-80
2024/01/22 09:11:15;;;;;;;59.00;19.53;;;24.30;39.20;;;;;;5067437;28;20638;-81
2024/01/22 09:13:42;;;;;;;59.37;22.40;;;24.20;39.20;;;;;;5066931;28;20631;-80
2024/01/22 09:16:14;;;;;;;65.37;23.13;;;24.20;39.20;;;;;;5067209;28;20206;-79
2024/01/22 09:18:42;;;;;;;72.90;24.10;;;24.30;39.30;;;;;;5067245;28;20686;-80
2024/01/22 09:21:09;;;;;;;62.73;23.67;;;24.20;39.20;;;;;;5067148;28;20195;-80
2024/01/22 09:23:36;;;;;;;60.57;22.17;;;24.20;39.20;;;;;;5087243;28;20246;-80
2024/01/22 09:26:03;;;;;;;72.43;23.37;;;24.20;39.20;;;;;;5073218;28;20788;-80
2024/01/22 09:28:31;;;;;;;57.47;22.53;;;24.20;39.30;;;;;;5067262;28;20195;-80
2024/01/22 09:30:59;;;;;;;72.27;23.67;;;24.20;39.30;;;;;;5066829;28;20217;-81
2024/01/22 09:33:28;;;;;;;55.63;22.30;;;24.20;39.30;;;;;;5066898;28;20265;-80
2024/01/22 09:35:55;;;;;;;64.10;21.33;;;24.20;39.30;;;;;;5067590;28;20578;-80
2024/01/22 09:38:22;;;;;;;58.60;22.20;;;24.10;39.20;;;;;;5067454;28;20204;-79
2024/01/22 09:40:50;;;;;;;72.70;23.53;;;24.20;39.30;;;;;;5067126;28;20202;-79
2024/01/22 09:43:18;;;;;;;62.10;25.17;;;24.10;39.20;;;;;;5081747;28;20234;-81
2024/01/22 09:45:47;;;;;;;70.70;23.63;;;24.10;39.20;;;;;;5087052;28;20236;-81
2024/01/22 09:48:14;;;;;;;66.50;23.83;;;24.10;39.30;;;;;;5086930;28;20202;-79
2024/01/22 09:50:42;;;;;;;50.20;22.57;;;24.10;39.30;;;;;;5086904;28;20572;-80
2024/01/22 09:53:11;;;;;;;70.07;23.70;;;24.10;39.30;;;;;;5087039;28;20635;-80
2024/01/22 09:55:40;;;;;;;56.00;21.47;;;24.10;39.30;;;;;;5086523;28;20689;-79
2024/01/22 09:58:08;;;;;;;61.30;20.87;;;24.10;39.30;;;;;;5069135;28;20678;-78
2024/01/22 10:00:36;;;;;;;69.10;21.47;;;24.10;39.40;;;;;;5067469;28;20322;-80
2024/01/22 10:03:04;;;;;;;63.57;20.40;;;24.10;39.40;;;;;;5071275;28;20223;-80
2024/01/22 10:05:31;;;;;;;58.83;21.70;;;24.10;39.40;;;;;;5090626;28;20218;-79
2024/01/22 10:07:59;;;;;;;75.47;21.07;;;24.10;39.40;;;;;;5091154;28;20285;-80
2024/01/22 10:10:26;;;;;;;59.90;19.67;;;24.10;40.10;;;;;;5071778;28;20195;-80
2024/01/22 10:13:04;;;;;;;54.53;19.60;;;24.10;39.40;;;;;;5070526;28;20264;-81
2024/01/22 10:15:32;;;;;;;68.60;21.10;;;24.10;39.60;;;;;;5070901;28;20188;-81
2024/01/22 10:18:10;;;;;;;57.47;19.03;;;24.10;39.50;;;;;;5091107;28;20206;-81
2024/01/22 10:20:38;;;;;;;71.37;20.93;;;24.10;39.80;;;;;;5090304;28;20278;-80
2024/01/22 10:23:06;;;;;;;143.20;46.57;;;24.10;39.70;;;;;;5087396;28;20229;-80
2024/01/22 10:25:33;;;;;;;54.77;20.23;;;24.20;39.90;;;;;;5071132;28;20294;-78
2024/01/22 10:28:11;;;;;;;64.00;20.00;;;24.30;40.00;;;;;;5088783;28;20222;-78
2024/01/22 10:30:39;;;;;;;68.17;21.60;;;24.30;40.10;;;;;;5090201;28;20215;-79
2024/01/22 10:33:13;;;;;;;74.63;19.13;;;24.40;39.90;;;;;;5076849;28;20682;-79
2024/01/22 10:35:41;;;;;;;59.07;18.77;;;24.50;40.00;;;;;;5088010;28;20673;-79
2024/01/22 10:38:12;;;;;;;61.77;19.63;;;24.70;40.00;;;;;;5090998;28;20218;-78
2024/01/22 10:40:39;;;;;;;73.67;21.13;;;24.80;40.00;;;;;;5071133;28;20196;-76
2024/01/22 10:43:24;;;;;;;71.93;23.33;;;24.90;40.10;;;;;;5089998;28;20313;-78
2024/01/22 10:45:52;;;;;;;64.70;22.90;;;25.10;40.10;;;;;;5090152;28;20728;-78
2024/01/22 10:48:21;;;;;;;65.80;22.07;;;25.30;40.00;;;;;;5089589;28;20209;-75
2024/01/22 10:50:50;;;;;;;67.13;22.00;;;25.40;39.70;;;;;;5089514;28;20287;-78
2024/01/22 10:53:19;;;;;;;70.13;21.07;;;25.60;39.80;;;;;;5090565;28;20203;-74
2024/01/22 10:55:56;;;;;;;53.87;20.07;;;25.80;40.30;;;;;;5089916;28;20655;-74
2024/01/22 10:58:26;;;;;;;68.87;21.40;;;25.90;39.60;;;;;;5072983;28;20202;-76
2024/01/22 11:00:58;;;;;;;63.30;21.03;;;26.10;39.40;;;;;;5070264;28;20246;-75
2024/01/22 11:03:28;;;;;;;59.13;20.87;;;26.30;39.30;;;;;;5069106;28;20600;-74
2024/01/22 11:05:59;;;;;;;60.53;21.00;;;26.40;39.10;;;;;;5069883;28;20210;-78
2024/01/22 11:08:31;;;;;;;70.47;20.93;;;26.50;39.20;;;;;;5069507;28;20192;-80
2024/01/22 11:10:59;;;;;;;48.67;21.10;;;26.70;39.00;;;;;;5069563;28;20199;-79
2024/01/22 11:13:28;;;;;;;59.30;20.17;;;26.80;38.90;;;;;;5069206;28;20210;-78
2024/01/22 11:15:56;;;;;;;58.33;20.83;;;26.90;38.70;;;;;;5077779;28;20198;-78
2024/01/22 11:18:23;;;;;;;62.57;21.23;;;27.00;38.60;;;;;;5089420;28;20198;-78
2024/01/22 11:21:18;;;;;;;81.37;29.27;;;27.10;38.40;;;;;;5073069;28;20695;-79
2024/01/22 11:24:10;;;;;;;62.40;20.30;;;27.20;38.20;;;;;;5069341;28;20726;-80
2024/01/22 11:26:43;;;;;;;58.17;20.13;;;27.20;38.00;;;;;;5069753;28;20286;-79
2024/01/22 11:29:13;;;;;;;50.57;18.63;;;27.30;38.10;;;;;;5070001;28;20283;-79
2024/01/22 11:31:41;;;;;;;96.77;23.77;;;27.30;38.10;;;;;;5067827;28;20223;-79
2024/01/22 11:34:08;;;;;;;60.57;20.87;;;27.30;38.10;;;;;;5069027;28;20192;-78
2024/01/22 11:36:55;;;;;;;63.23;20.67;;;27.30;38.10;;;;;;5069017;28;20206;-79
2024/01/22 11:39:46;;;;;;;62.17;22.30;;;27.30;38.00;;;;;;5069353;28;20207;-78
2024/01/22 11:42:29;;;;;;;63.27;19.93;;;27.30;37.90;;;;;;5068681;28;20211;-75
2024/01/22 11:44:58;;;;;;;60.63;21.33;;;27.40;37.90;;;;;;5069024;28;20215;-79
2024/01/22 11:47:27;;;;;;;65.97;21.20;;;27.30;38.00;;;;;;5068702;28;20283;-79
2024/01/22 11:50:01;;;;;;;61.03;22.53;;;27.30;38.00;;;;;;5069849;28;20279;-74
2024/01/22 11:52:28;;;;;;;57.80;21.90;;;27.30;37.90;;;;;;5077658;28;20229;-74
2024/01/22 11:54:57;;;;;;;55.40;21.07;;;27.30;38.00;;;;;;5088778;28;20203;-75
2024/01/22 11:57:26;;;;;;;61.43;20.50;;;27.20;37.90;;;;;;5088585;28;20191;-76
2024/01/22 12:00:00;;;;;;;50.27;19.97;;;27.20;37.90;;;;;;5088847;28;20310;-73
2024/01/22 12:02:27;;;;;;;60.90;22.13;;;27.20;37.90;;;;;;5083853;28;20203;-74
2024/01/22 12:05:02;;;;;;;62.57;20.67;;;27.10;37.90;;;;;;5073375;28;20345;-77
2024/01/22 12:07:33;;;;;;;60.37;20.50;;;27.10;37.90;;;;;;5088792;28;20575;-89
2024/01/22 12:10:02;;;;;;;61.13;18.17;;;27.10;38.60;;;;;;5070937;28;20231;-76
2024/01/22 12:12:29;;;;;;;51.90;22.00;;;27.10;37.90;;;;;;5074090;28;20199;-75
2024/01/22 12:14:56;;;;;;;66.70;19.80;;;27.00;37.90;;;;;;5070034;28;20199;-73
2024/01/22 12:17:24;;;;;;;60.57;19.73;;;27.00;37.90;;;;;;5088177;28;20191;-75
2024/01/22 12:19:54;;;;;;;65.20;18.30;;;27.00;38.10;;;;;;5077943;28;20207;-77
2024/01/22 12:22:22;;;;;;;46.63;17.57;;;26.90;38.10;;;;;;5079546;28;20198;-77
2024/01/22 12:25:07;;;;;;;76.13;20.10;;;26.90;38.20;;;;;;5088137;28;20218;-78
2024/01/22 12:27:35;;;;;;;61.27;18.73;;;26.80;38.20;;;;;;5077142;28;20203;-75
2024/01/22 12:30:04;;;;;;;57.03;19.37;;;26.80;38.30;;;;;;5077693;28;20238;-74
2024/01/22 12:32:31;;;;;;;59.53;18.00;;;26.80;38.40;;;;;;5084332;28;20207;-77